createdAt,value
2018-10-12T00:01:35.718Z,97093.75
2018-10-12T00:04:05.199Z,97096.71
2018-10-12T00:06:35.526Z,97105.22
2018-10-12T00:09:08.235Z,97106.07
2018-10-12T00:11:37.995Z,97103.50
2018-10-12T00:14:07.149Z,97106.49
2018-10-12T00:16:36.570Z,97107.76
2018-10-12T00:19:05.744Z,97118.41
2018-10-12T00:21:35.558Z,97121.38
2018-10-12T00:24:05.832Z,97120.08
2018-10-12T00:26:35.734Z,97119.67
2018-10-12T00:29:05.837Z,97117.12
2018-10-12T00:31:35.742Z,97127.75
2018-10-12T00:34:05.829Z,97128.17
2018-10-12T00:36:35.647Z,97130.71
2018-10-12T00:39:07.178Z,97138.78
2018-10-12T00:41:36.597Z,97139.20
2018-10-12T00:44:05.855Z,97129.88
2018-10-12T00:46:35.848Z,97138.36
2018-10-12T00:49:05.958Z,97135.37
2018-10-12T00:51:36.062Z,97133.27
2018-10-12T00:54:06.074Z,97141.74
2018-10-12T00:56:36.024Z,97144.32
2018-10-12T00:59:06.170Z,97144.73
2018-10-12T01:01:36.032Z,97147.70
2018-10-12T01:04:06.034Z,97147.72
2018-10-12T01:06:36.012Z,97151.10
2018-10-12T01:09:06.652Z,97161.75
2018-10-12T01:11:36.242Z,97164.70
2018-10-12T01:14:05.738Z,97164.70
2018-10-12T01:16:36.186Z,97164.71
2018-10-12T01:19:06.146Z,97166.40
2018-10-12T01:21:36.272Z,97169.80
2018-10-12T01:24:05.878Z,97176.59
2018-10-12T01:26:36.286Z,97180.42
2018-10-12T01:29:06.326Z,97176.59
2018-10-12T01:31:36.311Z,97174.05
2018-10-12T01:34:06.058Z,97176.59
2018-10-12T01:36:36.350Z,97182.56
2018-10-12T01:39:06.996Z,97187.63
2018-10-12T01:41:36.550Z,97187.63
2018-10-12T01:44:05.810Z,97187.63
2018-10-12T01:46:35.281Z,97180.84
2018-10-12T01:49:04.935Z,97183.39
2018-10-12T01:51:34.390Z,97192.31
2018-10-12T01:54:03.492Z,97192.73
2018-10-12T01:56:32.562Z,97196.14
2018-10-12T01:59:01.956Z,97189.74
2018-10-12T02:01:31.040Z,97197.80
2018-10-12T02:04:00.199Z,97195.26
2018-10-12T02:06:29.308Z,97207.59
2018-10-12T02:08:58.807Z,97209.70
2018-10-12T02:11:27.842Z,97221.99
2018-10-12T02:13:56.956Z,97222.82
2018-10-12T02:16:26.066Z,97218.14
2018-10-12T02:18:55.478Z,97213.86
2018-10-12T02:21:24.555Z,97223.20
2018-10-12T02:23:53.634Z,97224.88
2018-10-12T02:26:22.868Z,97229.97
2018-10-12T02:28:52.280Z,97237.58
2018-10-12T02:31:21.369Z,97233.75
2018-10-12T02:33:50.859Z,97243.48
2018-10-12T02:36:20.054Z,97252.84
2018-10-12T02:38:49.482Z,97253.67
2018-10-12T02:41:18.553Z,97252.81
2018-10-12T02:43:47.946Z,97257.86
2018-10-12T02:46:17.113Z,97258.68
2018-10-12T02:48:46.502Z,97255.72
2018-10-12T02:51:16.011Z,97262.03
2018-10-12T02:53:45.615Z,97264.98
2018-10-12T02:56:19.843Z,97272.17
2018-10-12T02:58:49.187Z,97280.66
2018-10-12T03:01:18.702Z,97281.52
2018-10-12T03:03:47.926Z,97287.02
2018-10-12T03:06:17.026Z,97287.84
2018-10-12T03:08:46.415Z,97296.33
2018-10-12T03:11:15.532Z,97305.20
2018-10-12T03:13:44.683Z,97307.73
2018-10-12T03:16:14.285Z,97310.28
2018-10-12T03:18:43.641Z,97307.73
2018-10-12T03:21:12.757Z,97308.13
2018-10-12T03:23:41.839Z,97308.52
2018-10-12T03:26:10.945Z,97306.83
2018-10-12T03:28:40.010Z,97318.70
2018-10-12T03:31:09.222Z,97324.66
2018-10-12T03:33:38.856Z,97328.03
2018-10-12T03:36:07.993Z,97339.93
2018-10-12T03:38:37.636Z,97330.56
2018-10-12T03:41:07.332Z,97334.83
2018-10-12T03:43:37.654Z,97331.42
2018-10-12T03:46:07.335Z,97322.50
2018-10-12T03:48:37.823Z,97330.09
2018-10-12T03:51:07.639Z,97341.52
2018-10-12T03:53:37.885Z,97334.70
2018-10-12T03:56:07.499Z,97334.68
2018-10-12T03:58:37.912Z,97334.66
2018-10-12T04:01:08.686Z,97335.41
2018-10-12T04:03:38.159Z,97337.92
2018-10-12T04:06:07.634Z,97347.20
2018-10-12T04:08:38.066Z,97353.08
2018-10-12T04:11:07.769Z,97351.33
2018-10-12T04:13:37.887Z,97353.79
2018-10-12T04:16:08.743Z,97352.91
2018-10-12T04:18:38.167Z,97354.14
2018-10-12T04:21:08.002Z,97358.75
2018-10-12T04:23:38.070Z,97359.13
2018-10-12T04:26:08.537Z,97366.67
2018-10-12T04:28:38.123Z,97370.82
2018-10-12T04:31:08.215Z,97372.03
2018-10-12T04:33:38.130Z,97371.58
2018-10-12T04:36:08.148Z,97383.86
2018-10-12T04:38:49.068Z,97383.02
2018-10-12T04:41:19.764Z,97380.43
2018-10-12T04:43:50.441Z,97379.95
2018-10-12T04:46:22.490Z,97381.99
2018-10-12T04:48:52.373Z,97391.26
2018-10-12T04:51:24.539Z,97392.03
2018-10-12T04:53:54.091Z,97398.75
2018-10-12T04:56:23.174Z,97398.28
2018-10-12T04:58:52.812Z,97404.13
2018-10-12T05:01:21.966Z,97404.89
2018-10-12T05:03:51.862Z,97410.78
2018-10-12T05:06:21.142Z,97411.17
2018-10-12T05:08:50.321Z,97417.93
2018-10-12T05:11:19.450Z,97420.41
2018-10-12T05:13:48.890Z,97424.61
2018-10-12T05:16:18.020Z,97428.81
2018-10-12T05:18:47.434Z,97431.34
2018-10-12T05:21:16.564Z,97434.70
2018-10-12T05:23:46.563Z,97443.16
2018-10-12T05:26:15.674Z,97449.94
2018-10-12T05:28:45.200Z,97451.66
2018-10-12T05:31:14.305Z,97460.95
2018-10-12T05:33:43.790Z,97462.20
2018-10-12T05:36:12.987Z,97463.44
2018-10-12T05:38:42.368Z,97467.17
2018-10-12T05:41:11.463Z,97472.21
2018-10-12T05:43:40.941Z,97475.52
2018-10-12T05:46:10.059Z,97475.86
2018-10-12T05:48:50.689Z,97476.70
2018-10-12T05:51:19.877Z,97472.44
2018-10-12T05:53:51.426Z,97480.90
2018-10-12T05:56:24.517Z,97485.86
2018-10-12T05:58:56.142Z,97491.82
2018-10-12T06:01:25.389Z,97493.52
2018-10-12T06:03:54.853Z,97496.94
2018-10-12T06:06:23.982Z,97501.20
2018-10-12T06:08:54.036Z,97510.59
2018-10-12T06:11:23.461Z,97503.02
2018-10-12T06:13:53.038Z,97509.87
2018-10-12T06:16:22.413Z,97514.09
2018-10-12T06:18:52.388Z,97520.88
2018-10-12T06:21:21.596Z,97519.30
2018-10-12T06:23:50.614Z,97528.65
2018-10-12T06:26:19.827Z,97534.69
2018-10-12T06:28:49.114Z,97537.77
2018-10-12T06:31:18.238Z,97534.48
2018-10-12T06:33:47.332Z,97535.84
2018-10-12T06:36:16.539Z,97541.42
2018-10-12T06:38:46.188Z,97538.55
2018-10-12T06:41:15.407Z,97536.98
2018-10-12T06:43:44.514Z,97537.91
2018-10-12T06:46:13.698Z,97549.48
2018-10-12T06:48:42.850Z,97544.05
2018-10-12T06:51:12.126Z,97547.09
2018-10-12T06:53:41.538Z,97545.88
2018-10-12T06:56:10.774Z,97558.70
2018-10-12T06:58:40.206Z,97554.56
2018-10-12T07:01:09.568Z,97565.31
2018-10-12T07:03:39.692Z,97567.52
2018-10-12T07:06:09.243Z,97573.59
2018-10-12T07:08:39.602Z,97566.02
2018-10-12T07:11:10.034Z,97567.76
2018-10-12T07:13:39.694Z,97581.89
2018-10-12T07:16:09.602Z,97576.44
2018-10-12T07:18:39.678Z,97576.53
2018-10-12T07:21:09.770Z,97591.91
2018-10-12T07:23:39.790Z,97596.23
2018-10-12T07:26:09.361Z,97600.56
2018-10-12T07:28:39.558Z,97597.27
2018-10-12T07:31:09.785Z,97601.65
2018-10-12T07:33:39.686Z,97606.89
2018-10-12T07:36:09.358Z,97610.42
2018-10-12T07:38:39.765Z,97619.45
2018-10-12T07:41:09.519Z,97613.19
2018-10-12T07:43:39.683Z,97616.30
2018-10-12T07:46:09.437Z,97624.06
2018-10-12T07:48:39.732Z,97623.80
2018-10-12T07:51:09.898Z,97626.44
2018-10-12T07:53:39.952Z,97630.79
2018-10-12T07:56:09.433Z,97629.21
2018-10-12T07:58:39.947Z,97627.59
2018-10-12T08:01:09.514Z,97625.14
2018-10-12T08:03:39.758Z,97634.99
2018-10-12T08:06:09.527Z,97640.59
2018-10-12T08:08:39.439Z,97644.89
2018-10-12T08:11:09.529Z,97644.09
2018-10-12T08:18:40.485Z,97635.67
2018-10-12T08:21:09.738Z,97634.86
2018-10-12T08:23:39.974Z,97642.55
2018-10-12T08:26:10.147Z,97634.88
2018-10-12T08:28:40.994Z,97644.28
2018-10-12T08:31:10.186Z,97641.72
2018-10-12T08:33:40.452Z,97638.72
2018-10-12T08:36:10.040Z,97637.44
2018-10-12T08:38:40.138Z,97643.37
2018-10-12T08:41:10.067Z,97644.23
2018-10-12T08:43:40.460Z,97644.20
2018-10-12T08:46:10.033Z,97650.13
2018-10-12T08:48:40.243Z,97653.50
2018-10-12T08:51:10.214Z,97654.28
2018-10-12T08:53:40.173Z,97661.94
2018-10-12T08:56:10.240Z,97658.06
2018-10-12T08:58:40.431Z,97660.16
2018-10-12T09:01:10.210Z,97661.84
2018-10-12T09:03:40.516Z,97664.38
2018-10-12T09:06:10.383Z,97670.36
2018-10-12T09:08:40.575Z,97663.05
2018-10-12T09:11:10.686Z,97668.60
2018-10-12T09:13:40.668Z,97668.58
2018-10-12T09:16:10.352Z,97671.09
2018-10-12T09:18:40.675Z,97671.92
2018-10-12T09:21:10.469Z,97671.75
2018-10-12T09:23:40.619Z,97669.12
2018-10-12T09:26:10.363Z,97674.63
2018-10-12T09:28:40.668Z,97675.84
2018-10-12T09:31:10.467Z,97676.64
2018-10-12T09:33:40.801Z,97679.98
2018-10-12T09:36:10.479Z,97678.72
2018-10-12T09:38:40.731Z,97672.66
2018-10-12T09:41:10.562Z,97673.05
2018-10-12T09:43:40.903Z,97673.02
2018-10-12T09:46:10.601Z,97672.97
2018-10-12T09:48:40.911Z,97666.91
2018-10-12T09:51:10.652Z,97670.22
2018-10-12T09:53:40.850Z,97665.88
2018-10-12T09:56:10.642Z,97667.55
2018-10-12T09:58:41.129Z,97674.73
2018-10-12T10:01:15.983Z,97686.25
2018-10-12T10:03:52.907Z,97682.78
2018-10-12T10:06:21.977Z,97684.45
2018-10-12T10:08:51.188Z,97685.27
2018-10-12T10:11:20.186Z,97679.20
2018-10-12T10:13:49.419Z,97677.42
2018-10-12T10:16:18.493Z,97678.20
2018-10-12T10:18:47.602Z,97681.48
2018-10-12T10:21:16.656Z,97666.68
2018-10-12T10:23:45.748Z,97666.58
2018-10-12T10:26:14.911Z,97662.27
2018-10-12T10:28:44.134Z,97668.25
2018-10-12T10:31:13.204Z,97664.77
2018-10-12T10:33:42.393Z,97665.11
2018-10-12T10:36:11.491Z,97667.63
2018-10-12T10:38:41.451Z,97667.09
2018-10-12T10:41:11.207Z,97668.81
2018-10-12T10:43:41.377Z,97662.38
2018-10-12T10:46:11.276Z,97660.12
2018-10-12T10:48:41.376Z,97656.52
2018-10-12T10:51:11.270Z,97661.52
2018-10-12T10:53:41.847Z,97659.77
2018-10-12T10:56:11.305Z,97654.53
2018-10-12T10:58:41.592Z,97662.08
2018-10-12T11:01:11.356Z,97660.20
2018-10-12T11:03:41.628Z,97652.44
2018-10-12T11:06:11.477Z,97651.61
2018-10-12T11:08:41.723Z,97652.90
2018-10-12T11:11:11.500Z,97653.30
2018-10-12T11:13:41.741Z,97652.61
2018-10-12T11:16:11.456Z,97654.20
2018-10-12T11:18:41.737Z,97656.61
2018-10-12T11:21:11.518Z,97648.41
2018-10-12T11:23:41.788Z,97646.66
2018-10-12T11:26:11.676Z,97647.55
2018-10-12T11:33:35.222Z,97632.65
2018-10-12T11:36:04.343Z,97631.75
2018-10-12T11:38:33.575Z,97627.34
2018-10-12T11:41:02.751Z,97623.80
2018-10-12T11:43:34.602Z,97625.33
2018-10-12T11:46:03.818Z,97625.25
2018-10-12T11:48:32.963Z,97622.67
2018-10-12T11:51:02.418Z,97625.88
2018-10-12T11:53:31.662Z,97616.81
2018-10-12T11:56:00.791Z,97624.94
2018-10-12T11:58:29.959Z,97618.80
2018-10-12T12:00:59.270Z,97617.05
2018-10-12T12:03:28.357Z,97610.24
2018-10-12T12:05:57.505Z,97602.58
2018-10-12T12:08:26.690Z,97605.98
2018-10-12T12:10:55.837Z,97606.72
2018-10-12T12:13:25.042Z,97605.81
2018-10-12T12:15:54.263Z,97606.13
2018-10-12T12:18:23.422Z,97605.45
2018-10-12T12:20:52.534Z,97600.04
2018-10-12T12:23:21.736Z,97596.62
2018-10-12T12:25:50.899Z,97594.95
2018-10-12T12:28:20.174Z,97591.55
2018-10-12T12:30:49.377Z,97591.52
2018-10-12T12:33:18.588Z,97589.58
2018-10-12T12:35:48.229Z,97596.33
2018-10-12T12:38:17.077Z,97586.73
2018-10-12T12:40:46.273Z,97592.79
2018-10-12T12:43:15.425Z,97585.86
2018-10-12T12:45:44.688Z,97586.67
2018-10-12T12:48:14.000Z,97586.20
2018-10-12T12:50:43.785Z,97584.48
2018-10-12T12:53:13.362Z,97579.13
2018-10-12T13:00:43.169Z,97581.84
2018-10-12T13:03:13.879Z,97585.18
2018-10-12T13:05:44.110Z,97581.61
2018-10-12T13:08:13.580Z,97579.83
2018-10-12T13:15:43.470Z,97581.31
2018-10-12T13:18:13.717Z,97577.44
2018-10-12T13:25:41.913Z,97566.15
2018-10-12T13:28:10.988Z,97571.70
2018-10-12T13:30:40.698Z,97572.98
2018-10-12T13:33:09.928Z,97569.92
2018-10-12T13:35:39.340Z,97576.58
2018-10-12T13:38:08.491Z,97569.67
2018-10-12T13:40:37.625Z,97568.77
2018-10-12T13:43:07.064Z,97573.05
2018-10-12T13:45:36.239Z,97573.05
2018-10-12T13:48:05.366Z,97576.42
2018-10-12T13:50:34.481Z,97573.37
2018-10-12T13:53:03.854Z,97572.08
2018-10-12T13:55:32.942Z,97571.14
2018-10-12T13:58:02.053Z,97573.73
2018-10-12T14:00:31.382Z,97566.03
2018-10-12T14:03:00.464Z,97573.64
2018-10-12T14:05:29.687Z,97578.56
2018-10-12T14:07:58.777Z,97578.50
2018-10-12T14:10:27.926Z,97580.27
2018-10-12T14:12:57.067Z,97578.31
2018-10-12T14:15:26.232Z,97575.88
2018-10-12T14:17:55.419Z,97568.34
2018-10-12T14:20:24.608Z,97576.23
2018-10-12T14:22:53.759Z,97569.66
2018-10-12T14:25:22.859Z,97572.95
2018-10-12T14:27:52.111Z,97567.61
2018-10-12T14:30:21.184Z,97563.06
2018-10-12T14:32:50.332Z,97565.26
2018-10-12T14:35:19.497Z,97571.20
2018-10-12T14:37:48.654Z,97566.36
2018-10-12T14:40:17.823Z,97572.50
2018-10-12T14:42:46.989Z,97572.12
2018-10-12T14:45:16.106Z,97569.75
2018-10-12T14:47:45.248Z,97562.11
2018-10-12T14:50:14.717Z,97567.63
2018-10-12T14:57:49.901Z,97555.67
2018-10-12T15:00:19.199Z,97553.97
2018-10-12T15:02:48.420Z,97552.23
2018-10-12T15:05:17.511Z,97554.09
2018-10-12T15:07:46.737Z,97554.63
2018-10-12T15:10:15.847Z,97554.45
2018-10-12T15:12:45.255Z,97553.39
2018-10-12T15:15:19.066Z,97548.94
2018-10-12T15:17:49.216Z,97553.68
2018-10-12T15:20:18.335Z,97552.34
2018-10-12T15:25:23.468Z,97549.66
2018-10-12T15:27:52.642Z,97555.96
2018-10-12T15:30:22.017Z,97553.59
2018-10-12T15:32:51.264Z,97554.63
2018-10-12T15:35:20.380Z,97554.72
2018-10-12T15:37:49.629Z,97556.41
2018-10-12T15:40:18.851Z,97556.88
2018-10-12T15:42:47.927Z,97559.28
2018-10-12T15:45:17.064Z,97559.64
2018-10-12T15:47:46.191Z,97562.46
2018-10-12T15:50:15.409Z,97562.79
2018-10-12T15:52:45.540Z,97563.11
2018-10-12T15:55:15.261Z,97564.23
2018-10-12T16:55:22.079Z,97592.42
2018-10-12T16:57:51.204Z,97594.31
2018-10-12T17:00:20.287Z,97591.03
2018-10-12T17:02:49.409Z,97595.45
2018-10-12T17:05:18.554Z,97601.11
2018-10-12T17:07:47.694Z,97599.95
2018-10-12T17:10:16.806Z,97604.77
2018-10-12T17:12:46.367Z,97613.02
2018-10-12T17:15:15.961Z,97614.78
2018-10-12T17:22:59.586Z,97619.34
2018-10-12T17:25:28.940Z,97616.48
2018-10-12T17:27:58.092Z,97629.76
2018-10-12T17:30:27.306Z,97628.95
2018-10-12T17:32:56.400Z,97626.44
2018-10-12T17:35:25.666Z,97627.38
2018-10-12T17:37:54.794Z,97629.13
2018-10-12T17:40:23.926Z,97630.90
2018-10-12T17:42:53.063Z,97632.66
2018-10-12T17:45:22.666Z,97633.54
2018-10-12T17:47:51.769Z,97641.23
2018-10-12T17:50:21.002Z,97645.55
2018-10-12T17:52:50.204Z,97646.86
2018-10-12T17:55:19.339Z,97652.02
2018-10-12T17:57:48.535Z,97651.56
2018-10-12T18:00:18.114Z,97655.86
2018-10-12T18:02:47.215Z,97656.75
2018-10-12T18:05:16.442Z,97655.94
2018-10-12T18:12:50.986Z,97651.78
2018-10-12T18:15:20.238Z,97650.95
2018-10-12T18:17:49.536Z,97657.80
2018-10-12T18:20:18.955Z,97656.13
2018-10-12T18:22:48.560Z,97654.44
2018-10-12T18:25:18.259Z,97664.68
2018-10-12T18:27:47.764Z,97659.16
2018-10-12T18:30:17.114Z,97662.14
2018-10-12T18:32:47.320Z,97662.17
2018-10-12T18:35:17.074Z,97666.02
2018-10-12T18:37:47.541Z,97662.58
2018-10-12T18:40:17.072Z,97667.72
2018-10-12T18:42:47.433Z,97666.41
2018-10-12T18:45:16.993Z,97666.43
2018-10-12T18:53:00.881Z,97669.88
2018-10-12T18:55:33.045Z,97677.96
2018-10-12T18:58:03.375Z,97676.25
2018-10-12T19:03:12.226Z,97676.69
2018-10-12T19:05:41.808Z,97684.77
2018-10-12T19:08:11.360Z,97697.98
2018-10-12T19:10:41.587Z,97698.84
2018-10-12T19:13:11.263Z,97703.06
2018-10-12T19:15:41.151Z,97710.30
2018-10-12T19:18:11.209Z,97704.73
2018-10-12T19:20:42.047Z,97711.55
2018-10-12T19:23:11.621Z,97711.06
2018-10-12T19:25:41.530Z,97711.03
2018-10-12T19:28:11.080Z,97718.28
2018-10-12T19:30:41.077Z,97712.27
2018-10-12T19:33:11.028Z,97715.66
2018-10-12T19:35:41.196Z,97717.38
2018-10-12T19:38:10.940Z,97715.66
2018-10-12T19:40:41.485Z,97714.83
2018-10-12T19:43:11.077Z,97719.08
2018-10-12T19:45:40.944Z,97709.72
2018-10-12T19:48:10.465Z,97716.52
2018-10-12T19:50:39.958Z,97715.69
2018-10-12T19:53:10.497Z,97710.58
2018-10-12T19:55:40.383Z,97723.78
2018-10-12T19:58:09.870Z,97720.80
2018-10-12T20:00:39.541Z,97722.50
2018-10-12T20:26:47.378Z,97722.19
2018-10-12T20:31:46.500Z,97723.00
2018-10-12T20:34:15.922Z,97717.89
2018-10-12T20:36:46.315Z,97725.53
2018-10-12T20:39:15.970Z,97722.53
2018-10-12T20:41:46.125Z,97722.52
2018-10-12T20:44:15.424Z,97729.72
2018-10-12T20:46:45.049Z,97725.45
2018-10-12T20:49:15.057Z,97727.09
2018-10-12T20:51:44.784Z,97716.88
2018-10-12T20:54:13.962Z,97714.31
2018-10-12T20:56:43.486Z,97718.55
2018-10-12T20:59:12.692Z,97713.84
2018-10-12T21:01:42.202Z,97709.10
2018-10-12T21:04:11.390Z,97712.06
2018-10-12T21:06:40.862Z,97711.63
2018-10-12T21:09:10.569Z,97712.86
2018-10-12T21:11:39.744Z,97719.22
2018-10-12T21:14:08.883Z,97715.80
2018-10-12T21:16:37.979Z,97714.91
2018-10-12T21:19:07.140Z,97711.88
2018-10-12T21:21:36.267Z,97715.64
2018-10-12T21:24:05.396Z,97714.75
2018-10-12T21:26:34.537Z,97718.09
2018-10-12T21:29:03.684Z,97718.08
2018-10-12T21:31:32.802Z,97718.06
2018-10-12T21:34:01.908Z,97718.01
2018-10-12T21:36:31.084Z,97710.34
2018-10-12T21:39:00.193Z,97704.36
2018-10-12T21:41:29.308Z,97714.54
2018-10-12T21:43:58.403Z,97716.20
2018-10-12T21:46:27.563Z,97712.72
2018-10-12T21:48:56.665Z,97712.69
2018-10-12T21:51:25.854Z,97719.05
2018-10-12T21:53:54.967Z,97713.49
2018-10-12T21:56:24.077Z,97708.38
2018-10-12T21:58:53.278Z,97701.13
2018-10-12T22:01:22.507Z,97704.07
2018-10-12T22:03:51.635Z,97700.64
2018-10-12T22:06:20.741Z,97701.50
2018-10-12T22:08:50.963Z,97697.67
2018-10-12T22:11:20.052Z,97693.85
2018-10-12T22:13:49.244Z,97690.45
2018-10-12T22:16:18.761Z,97693.83
2018-10-12T22:34:28.392Z,97690.50
2018-10-12T22:36:57.568Z,97684.98
2018-10-12T22:39:26.714Z,97683.23
2018-10-12T22:41:55.859Z,97690.42
2018-10-12T22:44:25.023Z,97684.84
2018-10-12T22:46:54.164Z,97689.03
2018-10-12T22:49:23.226Z,97690.70
2018-10-12T22:51:52.298Z,97684.30
2018-10-12T22:54:21.394Z,97684.63
2018-10-12T22:56:55.252Z,97693.92
2018-10-12T22:59:24.397Z,97687.09
2018-10-12T23:01:53.530Z,97691.20
2018-10-12T23:04:22.645Z,97688.56
2018-10-12T23:06:51.720Z,97683.83
2018-10-12T23:09:20.819Z,97690.16
2018-10-12T23:11:49.852Z,97681.63
2018-10-12T23:14:19.237Z,97681.16
2018-10-12T23:16:49.396Z,97678.97
2018-10-12T23:19:19.331Z,97680.62
2018-10-12T23:21:49.363Z,97676.81
2018-10-12T23:24:19.314Z,97675.98
2018-10-12T23:26:49.514Z,97684.94
2018-10-12T23:29:19.366Z,97681.55
2018-10-12T23:31:49.528Z,97679.00
2018-10-12T23:34:19.417Z,97681.61
2018-10-12T23:36:49.510Z,97676.91
2018-10-12T23:39:19.531Z,97679.10
2018-10-12T23:41:49.448Z,97680.41
2018-10-12T23:44:19.552Z,97682.95
2018-10-12T23:46:49.574Z,97676.56
2018-10-12T23:49:19.574Z,97675.67
2018-10-12T23:51:49.640Z,97673.91
2018-10-12T23:54:19.594Z,97682.36
2018-10-12T23:56:49.660Z,97678.44
2018-10-12T23:59:19.570Z,97679.66
